sensor_id;sensor_type;location;lat;lon;timestamp;temperature;humidity
69893;DHT22;61212;42.688;22.176;2022-09-09T00:01:43;460.90;2380.80
69893;DHT22;61212;42.688;22.176;2022-09-09T00:07:09;461.10;2380.80
69893;DHT22;61212;42.688;22.176;2022-09-09T05:58:01;512.40;2380.80
69893;DHT22;61212;42.688;22.176;2022-09-09T06:02:57;512.80;2380.80
69893;DHT22;61212;42.688;22.176;2022-09-09T06:05:22;512.60;2380.80
69893;DHT22;61212;42.688;22.176;2022-09-09T06:07:52;512.70;2380.80
69893;DHT22;61212;42.688;22.176;2022-09-09T06:10:18;512.90;2380.80
69893;DHT22;61212;42.688;22.176;2022-09-09T06:12:44;537.60;2406.40
69893;DHT22;61212;42.688;22.176;2022-09-09T06:15:10;512.90;2380.80
69893;DHT22;61212;42.688;22.176;2022-09-09T06:17:36;512.90;2380.80
69893;DHT22;61212;42.688;22.176;2022-09-09T06:20:02;512.80;2380.80
69893;DHT22;61212;42.688;22.176;2022-09-09T06:22:28;512.80;2380.80
69893;DHT22;61212;42.688;22.176;2022-09-09T06:28:17;512.60;2380.80
69893;DHT22;61212;42.688;22.176;2022-09-09T06:30:43;512.60;2380.80
69893;DHT22;61212;42.688;22.176;2022-09-09T06:33:10;512.50;2380.80
69893;DHT22;61212;42.688;22.176;2022-09-09T06:35:35;512.30;2380.80
69893;DHT22;61212;42.688;22.176;2022-09-09T06:38:01;512.20;2380.80
69893;DHT22;61212;42.688;22.176;2022-09-09T06:40:27;512.10;2048.00
69893;DHT22;61212;42.688;22.176;2022-09-09T06:42:53;512.10;2380.80
69893;DHT22;61212;42.688;22.176;2022-09-09T06:45:19;512.10;2380.80
69893;DHT22;61212;42.688;22.176;2022-09-09T06:47:44;512.00;2380.80
69893;DHT22;61212;42.688;22.176;2022-09-09T06:50:10;487.30;2380.80
69893;DHT22;61212;42.688;22.176;2022-09-09T06:52:36;487.30;2380.80
69893;DHT22;61212;42.688;22.176;2022-09-09T06:55:03;512.00;2380.80
69893;DHT22;61212;42.688;22.176;2022-09-09T06:57:29;487.30;2380.80
69893;DHT22;61212;42.688;22.176;2022-09-09T07:51:58;512.90;2380.80
69893;DHT22;61212;42.688;22.176;2022-09-09T07:57:46;512.90;2380.80
69893;DHT22;61212;42.688;22.176;2022-09-09T08:02:40;537.70;2406.40
69893;DHT22;61212;42.688;22.176;2022-09-09T08:05:06;512.70;2380.80
69893;DHT22;61212;42.688;22.176;2022-09-09T08:07:32;512.70;2380.80
69893;DHT22;61212;42.688;22.176;2022-09-09T08:13:20;512.50;2380.80
69893;DHT22;61212;42.688;22.176;2022-09-09T08:15:46;512.40;2380.80
69893;DHT22;61212;42.688;22.176;2022-09-09T08:18:11;512.30;2380.80
69893;DHT22;61212;42.688;22.176;2022-09-09T08:20:37;512.30;2380.80
69893;DHT22;61212;42.688;22.176;2022-09-09T08:23:03;512.30;2380.80
69893;DHT22;61212;42.688;22.176;2022-09-09T08:28:54;512.30;2380.80
69893;DHT22;61212;42.688;22.176;2022-09-09T08:31:30;512.20;2380.80
69893;DHT22;61212;42.688;22.176;2022-09-09T08:33:57;512.20;2380.80
69893;DHT22;61212;42.688;22.176;2022-09-09T08:36:26;512.20;2380.80
69893;DHT22;61212;42.688;22.176;2022-09-09T08:38:55;512.30;2380.80
69893;DHT22;61212;42.688;22.176;2022-09-09T08:41:41;512.30;2380.80
69893;DHT22;61212;42.688;22.176;2022-09-09T08:44:20;512.30;2380.80
69893;DHT22;61212;42.688;22.176;2022-09-09T08:46:51;512.20;2380.80
69893;DHT22;61212;42.688;22.176;2022-09-09T08:52:29;512.20;2380.80
69893;DHT22;61212;42.688;22.176;2022-09-09T08:58:20;512.30;2380.80
69893;DHT22;61212;42.688;22.176;2022-09-09T09:11:45;512.40;2380.80
69893;DHT22;61212;42.688;22.176;2022-09-09T09:14:20;512.40;2380.80
69893;DHT22;61212;42.688;22.176;2022-09-09T09:17:03;512.40;2380.80
69893;DHT22;61212;42.688;22.176;2022-09-09T09:19:32;512.30;2380.80
69893;DHT22;61212;42.688;22.176;2022-09-09T09:30:35;512.00;2380.80
69893;DHT22;61212;42.688;22.176;2022-09-09T09:33:12;512.00;2380.80
69893;DHT22;61212;42.688;22.176;2022-09-09T09:35:40;487.30;2380.80
69893;DHT22;61212;42.688;22.176;2022-09-09T09:38:32;512.00;2380.80
69893;DHT22;61212;42.688;22.176;2022-09-09T09:40:59;512.10;2380.80
69893;DHT22;61212;42.688;22.176;2022-09-09T09:43:37;512.10;2380.80
69893;DHT22;61212;42.688;22.176;2022-09-09T09:46:19;512.20;2380.80
69893;DHT22;61212;42.688;22.176;2022-09-09T09:48:45;512.20;2380.80
69893;DHT22;61212;42.688;22.176;2022-09-09T09:51:23;512.20;2380.80
69893;DHT22;61212;42.688;22.176;2022-09-09T09:53:49;512.20;2380.80
69893;DHT22;61212;42.688;22.176;2022-09-09T09:56:26;512.30;2380.80
69893;DHT22;61212;42.688;22.176;2022-09-09T09:58:54;512.40;2380.80
69893;DHT22;61212;42.688;22.176;2022-09-09T10:01:28;512.40;2380.80
69893;DHT22;61212;42.688;22.176;2022-09-09T10:06:35;512.40;2380.80
69893;DHT22;61212;42.688;22.176;2022-09-09T10:09:17;512.50;2380.80
69893;DHT22;61212;42.688;22.176;2022-09-09T10:11:55;512.60;2380.80
69893;DHT22;61212;42.688;22.176;2022-09-09T10:15:22;512.60;2380.80
69893;DHT22;61212;42.688;22.176;2022-09-09T10:18:08;512.70;2380.80
69893;DHT22;61212;42.688;22.176;2022-09-09T10:21:18;512.70;2380.80
69893;DHT22;61212;42.688;22.176;2022-09-09T10:35:43;512.90;2380.80
69893;DHT22;61212;42.688;22.176;2022-09-09T10:52:09;537.80;2406.40
69893;DHT22;61212;42.688;22.176;2022-09-09T10:55:00;537.80;2406.40
69893;DHT22;61212;42.688;22.176;2022-09-09T10:57:36;537.80;2406.40
69893;DHT22;61212;42.688;22.176;2022-09-09T11:00:06;537.90;2406.40
69893;DHT22;61212;42.688;22.176;2022-09-09T11:02:34;537.80;2406.40
69893;DHT22;61212;42.688;22.176;2022-09-09T11:07:41;512.90;2380.80
69893;DHT22;61212;42.688;22.176;2022-09-09T11:10:36;537.60;2406.40
69893;DHT22;61212;42.688;22.176;2022-09-09T11:13:10;512.90;2380.80
69893;DHT22;61212;42.688;22.176;2022-09-09T11:15:50;512.80;2380.80
69893;DHT22;61212;42.688;22.176;2022-09-09T11:18:20;512.90;2380.80
69893;DHT22;61212;42.688;22.176;2022-09-09T11:20:53;512.80;2380.80
69893;DHT22;61212;42.688;22.176;2022-09-09T11:23:32;512.80;2380.80
69893;DHT22;61212;42.688;22.176;2022-09-09T11:26:02;512.80;2380.80
69893;DHT22;61212;42.688;22.176;2022-09-09T11:36:53;512.40;2380.80
69893;DHT22;61212;42.688;22.176;2022-09-09T11:42:20;512.20;2380.80
69893;DHT22;61212;42.688;22.176;2022-09-09T11:44:46;512.20;2380.80
69893;DHT22;61212;42.688;22.176;2022-09-09T11:47:27;512.20;2380.80
69893;DHT22;61212;42.688;22.176;2022-09-09T11:52:47;512.60;2380.80
69893;DHT22;61212;42.688;22.176;2022-09-09T11:55:26;512.60;2380.80
69893;DHT22;61212;42.688;22.176;2022-09-09T11:58:00;512.70;2380.80
69893;DHT22;61212;42.688;22.176;2022-09-09T12:00:47;512.60;2380.80
69893;DHT22;61212;42.688;22.176;2022-09-09T12:06:31;512.60;2380.80
69893;DHT22;61212;42.688;22.176;2022-09-09T12:11:49;512.70;2380.80
69893;DHT22;61212;42.688;22.176;2022-09-09T12:17:31;512.80;2380.80
69893;DHT22;61212;42.688;22.176;2022-09-09T12:20:17;512.90;2380.80
69893;DHT22;61212;42.688;22.176;2022-09-09T12:23:05;537.60;2406.40
69893;DHT22;61212;42.688;22.176;2022-09-09T12:34:13;537.90;2406.40
69893;DHT22;61212;42.688;22.176;2022-09-09T12:36:41;538.00;2406.40
69893;DHT22;61212;42.688;22.176;2022-09-09T13:24:41;563.60;2432.00
69893;DHT22;61212;42.688;22.176;2022-09-09T13:29:54;563.30;2432.00
69893;DHT22;61212;42.688;22.176;2022-09-09T13:32:23;563.30;2432.00
69893;DHT22;61212;42.688;22.176;2022-09-09T13:34:59;563.30;2432.00
69893;DHT22;61212;42.688;22.176;2022-09-09T13:37:59;563.40;2432.00
69893;DHT22;61212;42.688;22.176;2022-09-09T13:43:45;563.50;2432.00
69893;DHT22;61212;42.688;22.176;2022-09-09T13:48:57;563.40;2432.00
69893;DHT22;61212;42.688;22.176;2022-09-09T13:51:35;563.40;2432.00
69893;DHT22;61212;42.688;22.176;2022-09-09T13:54:06;563.60;2432.00
69893;DHT22;61212;42.688;22.176;2022-09-09T13:56:33;563.70;2432.00
69893;DHT22;61212;42.688;22.176;2022-09-09T13:58:59;563.50;2432.00
69893;DHT22;61212;42.688;22.176;2022-09-09T14:01:25;563.50;2432.00
69893;DHT22;61212;42.688;22.176;2022-09-09T14:03:53;563.40;2432.00
69893;DHT22;61212;42.688;22.176;2022-09-09T14:06:19;563.40;2432.00
69893;DHT22;61212;42.688;22.176;2022-09-09T14:08:48;563.40;2432.00
69893;DHT22;61212;42.688;22.176;2022-09-09T14:11:15;563.40;2432.00
69893;DHT22;61212;42.688;22.176;2022-09-09T14:13:41;563.40;2432.00
69893;DHT22;61212;42.688;22.176;2022-09-09T14:16:07;563.50;2432.00
69893;DHT22;61212;42.688;22.176;2022-09-09T14:18:33;563.40;2432.00
69893;DHT22;61212;42.688;22.176;2022-09-09T14:20:59;563.40;2432.00
69893;DHT22;61212;42.688;22.176;2022-09-09T14:23:25;563.40;2432.00
69893;DHT22;61212;42.688;22.176;2022-09-09T14:29:13;563.40;2432.00
69893;DHT22;61212;42.688;22.176;2022-09-09T14:31:39;563.30;2432.00
69893;DHT22;61212;42.688;22.176;2022-09-09T14:34:04;563.30;2432.00
69893;DHT22;61212;42.688;22.176;2022-09-09T14:36:31;563.30;2432.00
69893;DHT22;61212;42.688;22.176;2022-09-09T14:38:57;563.30;2432.00
69893;DHT22;61212;42.688;22.176;2022-09-09T14:41:42;563.30;2432.00
69893;DHT22;61212;42.688;22.176;2022-09-09T14:44:08;563.30;2432.00
69893;DHT22;61212;42.688;22.176;2022-09-09T14:46:34;563.30;2432.00
69893;DHT22;61212;42.688;22.176;2022-09-09T14:49:00;563.40;2432.00
69893;DHT22;61212;42.688;22.176;2022-09-09T14:51:26;563.40;2432.00
69893;DHT22;61212;42.688;22.176;2022-09-09T14:53:57;563.40;2432.00
69893;DHT22;61212;42.688;22.176;2022-09-09T14:56:38;563.40;2432.00
69893;DHT22;61212;42.688;22.176;2022-09-09T14:59:04;563.50;2432.00
69893;DHT22;61212;42.688;22.176;2022-09-09T15:01:31;563.40;2432.00
69893;DHT22;61212;42.688;22.176;2022-09-09T15:03:58;563.50;2432.00
69893;DHT22;61212;42.688;22.176;2022-09-09T15:06:26;563.60;2432.00
69893;DHT22;61212;42.688;22.176;2022-09-09T15:08:53;563.50;2432.00
69893;DHT22;61212;42.688;22.176;2022-09-09T15:11:20;563.50;2432.00
69893;DHT22;61212;42.688;22.176;2022-09-09T15:13:46;563.60;2432.00
69893;DHT22;61212;42.688;22.176;2022-09-09T15:16:13;563.50;2432.00
69893;DHT22;61212;42.688;22.176;2022-09-09T15:18:40;563.50;2432.00
69893;DHT22;61212;42.688;22.176;2022-09-09T15:21:12;563.50;2432.00
69893;DHT22;61212;42.688;22.176;2022-09-09T15:23:38;563.40;2432.00
69893;DHT22;61212;42.688;22.176;2022-09-09T15:26:05;563.50;2432.00
69893;DHT22;61212;42.688;22.176;2022-09-09T15:28:35;563.40;2432.00
69893;DHT22;61212;42.688;22.176;2022-09-09T15:31:23;563.40;2432.00
69893;DHT22;61212;42.688;22.176;2022-09-09T15:33:51;563.40;2432.00
69893;DHT22;61212;42.688;22.176;2022-09-09T15:38:44;563.40;2432.00
69893;DHT22;61212;42.688;22.176;2022-09-09T15:41:29;563.40;2432.00
69893;DHT22;61212;42.688;22.176;2022-09-09T15:43:57;563.40;2432.00
69893;DHT22;61212;42.688;22.176;2022-09-09T15:49:09;563.40;2432.00
69893;DHT22;61212;42.688;22.176;2022-09-09T15:51:37;563.40;2432.00
69893;DHT22;61212;42.688;22.176;2022-09-09T15:54:03;563.40;2432.00
69893;DHT22;61212;42.688;22.176;2022-09-09T15:56:31;563.40;2432.00
69893;DHT22;61212;42.688;22.176;2022-09-09T15:58:58;563.40;2432.00
69893;DHT22;61212;42.688;22.176;2022-09-09T16:01:25;563.40;2432.00
69893;DHT22;61212;42.688;22.176;2022-09-09T16:03:52;563.40;2432.00
69893;DHT22;61212;42.688;22.176;2022-09-09T16:06:20;563.40;2432.00
69893;DHT22;61212;42.688;22.176;2022-09-09T16:08:49;563.30;2432.00
69893;DHT22;61212;42.688;22.176;2022-09-09T16:11:27;563.30;2432.00
69893;DHT22;61212;42.688;22.176;2022-09-09T16:13:54;563.30;2432.00
69893;DHT22;61212;42.688;22.176;2022-09-09T16:16:22;563.20;2432.00
69893;DHT22;61212;42.688;22.176;2022-09-09T16:18:58;563.20;2432.00
69893;DHT22;61212;42.688;22.176;2022-09-09T16:21:33;563.20;2432.00
69893;DHT22;61212;42.688;22.176;2022-09-09T16:24:01;563.20;2432.00
69893;DHT22;61212;42.688;22.176;2022-09-09T16:26:59;563.20;2432.00
69893;DHT22;61212;42.688;22.176;2022-09-09T16:29:25;563.20;2432.00
69893;DHT22;61212;42.688;22.176;2022-09-09T16:31:53;563.20;2432.00
69893;DHT22;61212;42.688;22.176;2022-09-09T17:38:34;537.60;2406.40
69893;DHT22;61212;42.688;22.176;2022-09-09T17:44:21;512.60;2380.80
69893;DHT22;61212;42.688;22.176;2022-09-09T17:46:47;512.60;2380.80
69893;DHT22;61212;42.688;22.176;2022-09-09T17:49:15;512.70;2380.80
69893;DHT22;61212;42.688;22.176;2022-09-09T17:51:44;512.70;2380.80
69893;DHT22;61212;42.688;22.176;2022-09-09T17:54:16;512.70;2380.80
69893;DHT22;61212;42.688;22.176;2022-09-09T17:56:42;512.70;2380.80
69893;DHT22;61212;42.688;22.176;2022-09-09T17:59:10;512.80;2380.80
69893;DHT22;61212;42.688;22.176;2022-09-09T18:01:40;512.70;2380.80
69893;DHT22;61212;42.688;22.176;2022-09-09T18:04:08;512.70;2380.80
69893;DHT22;61212;42.688;22.176;2022-09-09T18:06:37;512.70;2380.80
69893;DHT22;61212;42.688;22.176;2022-09-09T18:09:09;512.70;2380.80
69893;DHT22;61212;42.688;22.176;2022-09-09T18:12:13;512.70;2380.80
69893;DHT22;61212;42.688;22.176;2022-09-09T18:14:38;512.70;2380.80
69893;DHT22;61212;42.688;22.176;2022-09-09T18:17:04;512.70;2380.80
69893;DHT22;61212;42.688;22.176;2022-09-09T18:19:31;512.70;2380.80
69893;DHT22;61212;42.688;22.176;2022-09-09T18:21:58;512.60;2380.80
69893;DHT22;61212;42.688;22.176;2022-09-09T18:24:24;512.40;2380.80
69893;DHT22;61212;42.688;22.176;2022-09-09T18:26:50;512.30;2380.80
69893;DHT22;61212;42.688;22.176;2022-09-09T18:29:19;512.30;2380.80
69893;DHT22;61212;42.688;22.176;2022-09-09T18:31:47;512.50;2380.80
69893;DHT22;61212;42.688;22.176;2022-09-09T18:34:14;512.30;2380.80
69893;DHT22;61212;42.688;22.176;2022-09-09T18:36:46;512.30;2380.80
69893;DHT22;61212;42.688;22.176;2022-09-09T18:39:15;512.30;2380.80
69893;DHT22;61212;42.688;22.176;2022-09-09T18:41:49;512.30;2380.80
69893;DHT22;61212;42.688;22.176;2022-09-09T18:44:19;512.30;2380.80
69893;DHT22;61212;42.688;22.176;2022-09-09T18:46:45;512.20;2380.80
69893;DHT22;61212;42.688;22.176;2022-09-09T18:49:12;512.20;2380.80
69893;DHT22;61212;42.688;22.176;2022-09-09T18:51:41;512.40;2380.80
69893;DHT22;61212;42.688;22.176;2022-09-09T20:17:52;486.80;2380.80
69893;DHT22;61212;42.688;22.176;2022-09-09T20:20:19;486.60;2380.80
69893;DHT22;61212;42.688;22.176;2022-09-09T20:22:44;486.60;2380.80
69893;DHT22;61212;42.688;22.176;2022-09-09T20:27:36;486.60;2380.80
69893;DHT22;61212;42.688;22.176;2022-09-09T20:30:02;486.50;2380.80
69893;DHT22;61212;42.688;22.176;2022-09-09T20:32:29;486.50;2380.80
69893;DHT22;61212;42.688;22.176;2022-09-09T20:34:55;486.40;2380.80
69893;DHT22;61212;42.688;22.176;2022-09-09T20:37:21;486.40;2380.80
69893;DHT22;61212;42.688;22.176;2022-09-09T20:39:48;461.60;2380.80
69893;DHT22;61212;42.688;22.176;2022-09-09T20:42:32;461.70;2380.80
69893;DHT22;61212;42.688;22.176;2022-09-09T20:44:58;461.70;2380.80
69893;DHT22;61212;42.688;22.176;2022-09-09T20:47:24;461.70;2380.80
69893;DHT22;61212;42.688;22.176;2022-09-09T20:49:50;461.60;2380.80
69893;DHT22;61212;42.688;22.176;2022-09-09T20:52:16;461.60;2380.80
69893;DHT22;61212;42.688;22.176;2022-09-09T20:54:44;461.60;2380.80
69893;DHT22;61212;42.688;22.176;2022-09-09T20:57:11;461.60;2380.80
69893;DHT22;61212;42.688;22.176;2022-09-09T20:59:38;461.60;2380.80
69893;DHT22;61212;42.688;22.176;2022-09-09T21:02:05;461.60;2380.80
69893;DHT22;61212;42.688;22.176;2022-09-09T21:04:32;461.50;2380.80
69893;DHT22;61212;42.688;22.176;2022-09-09T21:06:58;461.50;2380.80
69893;DHT22;61212;42.688;22.176;2022-09-09T21:09:24;461.40;2380.80
69893;DHT22;61212;42.688;22.176;2022-09-09T21:14:59;461.40;2380.80
69893;DHT22;61212;42.688;22.176;2022-09-09T21:17:25;461.30;2380.80
69893;DHT22;61212;42.688;22.176;2022-09-09T21:19:51;461.30;2380.80
69893;DHT22;61212;42.688;22.176;2022-09-09T21:22:17;461.40;2380.80
69893;DHT22;61212;42.688;22.176;2022-09-09T21:24:42;461.40;2380.80
69893;DHT22;61212;42.688;22.176;2022-09-09T21:27:08;461.40;2380.80
69893;DHT22;61212;42.688;22.176;2022-09-09T21:29:34;461.30;2380.80
69893;DHT22;61212;42.688;22.176;2022-09-09T21:32:00;461.20;2380.80
69893;DHT22;61212;42.688;22.176;2022-09-09T21:34:28;461.20;2380.80
69893;DHT22;61212;42.688;22.176;2022-09-09T21:36:54;461.20;2380.80
69893;DHT22;61212;42.688;22.176;2022-09-09T21:39:20;461.20;2380.80
69893;DHT22;61212;42.688;22.176;2022-09-09T21:42:23;461.20;2380.80
69893;DHT22;61212;42.688;22.176;2022-09-09T21:44:48;461.30;2380.80
69893;DHT22;61212;42.688;22.176;2022-09-09T21:47:14;461.30;2380.80
69893;DHT22;61212;42.688;22.176;2022-09-09T21:49:40;461.20;2380.80
69893;DHT22;61212;42.688;22.176;2022-09-09T21:52:07;461.20;2380.80
69893;DHT22;61212;42.688;22.176;2022-09-09T21:54:33;461.40;2380.80
69893;DHT22;61212;42.688;22.176;2022-09-09T21:59:39;461.40;2380.80
69893;DHT22;61212;42.688;22.176;2022-09-09T22:19:10;461.60;2380.80
69893;DHT22;61212;42.688;22.176;2022-09-09T22:21:36;461.40;2380.80
69893;DHT22;61212;42.688;22.176;2022-09-09T22:24:03;461.30;2380.80
69893;DHT22;61212;42.688;22.176;2022-09-09T22:26:32;461.40;2380.80
